createdAt,value
2022-08-27T00:00:45.964Z,17.71
2022-08-27T00:03:13.372Z,17.50
2022-08-27T00:05:40.785Z,17.44
2022-08-27T00:08:09.098Z,17.57
2022-08-27T00:10:36.054Z,17.59
2022-08-27T00:13:03.084Z,17.59
2022-08-27T00:15:30.067Z,17.61
2022-08-27T00:17:57.033Z,17.55
2022-08-27T00:20:26.122Z,17.37
2022-08-27T00:22:53.415Z,17.20
2022-08-27T00:25:20.638Z,17.28
2022-08-27T00:27:47.422Z,17.30
2022-08-27T00:30:17.038Z,17.23
2022-08-27T00:32:44.494Z,17.07
2022-08-27T00:35:12.045Z,17.09
2022-08-27T00:37:38.814Z,17.10
2022-08-27T00:40:07.971Z,17.00
2022-08-27T00:42:34.775Z,17.08
2022-08-27T00:45:01.644Z,17.07
2022-08-27T00:47:30.212Z,17.11
2022-08-27T00:50:01.312Z,17.19
2022-08-27T00:52:53.804Z,17.09
2022-08-27T00:55:30.254Z,17.16
2022-08-27T00:58:18.575Z,17.19
2022-08-27T01:00:46.712Z,17.23
2022-08-27T01:03:14.208Z,17.21
2022-08-27T01:05:43.212Z,17.23
2022-08-27T01:08:25.044Z,17.24
2022-08-27T01:10:52.132Z,17.25
2022-08-27T01:13:21.905Z,17.20
2022-08-27T01:16:09.665Z,17.24
2022-08-27T01:18:37.801Z,17.08
2022-08-27T01:21:13.069Z,17.07
2022-08-27T01:23:54.657Z,17.04
2022-08-27T01:26:21.935Z,17.08
2022-08-27T01:28:49.194Z,17.07
2022-08-27T01:31:16.036Z,17.02
2022-08-27T01:33:54.866Z,16.94
2022-08-27T01:36:21.604Z,17.01
2022-08-27T01:38:48.384Z,16.82
2022-08-27T01:41:15.373Z,16.81
2022-08-27T01:43:42.294Z,16.80
2022-08-27T01:46:09.098Z,16.78
2022-08-27T01:48:35.884Z,16.85
2022-08-27T01:51:02.672Z,16.88
2022-08-27T01:53:29.422Z,16.95
2022-08-27T01:55:56.534Z,17.03
2022-08-27T01:58:26.995Z,16.99
2022-08-27T02:00:57.296Z,16.94
2022-08-27T02:03:24.604Z,17.01
2022-08-27T02:05:52.045Z,16.90
2022-08-27T02:08:19.404Z,16.72
2022-08-27T02:10:48.137Z,16.66
2022-08-27T02:13:15.590Z,16.76
2022-08-27T02:15:43.014Z,16.69
2022-08-27T02:18:10.652Z,16.76
2022-08-27T02:20:37.555Z,16.70
2022-08-27T02:23:04.912Z,16.78
2022-08-27T02:25:31.772Z,16.79
2022-08-27T02:28:00.480Z,16.81
2022-08-27T02:30:28.885Z,16.88
2022-08-27T02:32:55.767Z,16.85
2022-08-27T02:35:24.641Z,16.92
2022-08-27T02:37:52.613Z,16.91
2022-08-27T02:40:22.197Z,16.92
2022-08-27T02:42:49.946Z,16.98
2022-08-27T02:45:17.690Z,16.94
2022-08-27T02:47:44.573Z,16.87
2022-08-27T02:50:13.445Z,16.91
2022-08-27T02:52:41.184Z,16.82
2022-08-27T02:55:08.927Z,16.76
2022-08-27T02:57:36.421Z,16.73
2022-08-27T03:00:10.344Z,16.67
2022-08-27T03:02:37.320Z,16.58
2022-08-27T03:05:05.013Z,16.61
2022-08-27T03:07:31.775Z,16.60
2022-08-27T03:09:58.460Z,16.65
2022-08-27T03:12:25.282Z,16.64
2022-08-27T03:14:52.187Z,16.67
2022-08-27T03:17:37.468Z,16.54
2022-08-27T03:20:06.253Z,16.55
2022-08-27T03:22:32.984Z,16.65
2022-08-27T03:25:02.965Z,16.68
2022-08-27T03:27:29.796Z,16.70
2022-08-27T03:29:58.677Z,16.70
2022-08-27T03:32:28.685Z,16.68
2022-08-27T03:34:58.567Z,16.70
2022-08-27T03:37:25.862Z,16.68
2022-08-27T03:39:52.987Z,16.57
2022-08-27T03:42:19.805Z,16.56
2022-08-27T03:44:46.505Z,16.52
2022-08-27T03:47:13.664Z,16.48
2022-08-27T03:49:40.863Z,16.50
2022-08-27T03:52:08.432Z,16.46
2022-08-27T03:54:36.328Z,16.51
2022-08-27T03:57:03.164Z,16.47
2022-08-27T03:59:30.032Z,16.52
2022-08-27T04:01:57.275Z,16.47
2022-08-27T04:04:24.353Z,16.49
2022-08-27T04:06:51.245Z,16.42
2022-08-27T04:09:18.512Z,16.31
2022-08-27T04:11:45.302Z,16.30
2022-08-27T04:14:24.853Z,16.29
2022-08-27T04:16:54.535Z,16.37
2022-08-27T04:19:26.430Z,16.35
2022-08-27T04:21:54.104Z,16.33
2022-08-27T04:24:20.715Z,16.31
2022-08-27T04:26:47.890Z,16.31
2022-08-27T04:29:14.581Z,16.30
2022-08-27T04:31:41.638Z,16.37
2022-08-27T04:34:08.509Z,16.26
2022-08-27T04:36:35.209Z,16.26
2022-08-27T04:39:02.081Z,16.31
2022-08-27T04:41:33.292Z,16.41
2022-08-27T04:44:04.697Z,16.36
2022-08-27T04:46:34.301Z,16.19
2022-08-27T04:49:03.948Z,16.26
2022-08-27T04:51:36.926Z,16.39
2022-08-27T04:54:06.736Z,16.35
2022-08-27T04:56:34.313Z,16.39
2022-08-27T04:59:04.033Z,16.41
2022-08-27T05:01:31.486Z,16.44
2022-08-27T05:04:00.890Z,16.34
2022-08-27T05:06:27.892Z,16.44
2022-08-27T05:08:54.993Z,16.35
2022-08-27T05:11:23.681Z,16.41
2022-08-27T05:13:50.845Z,16.40
2022-08-27T05:16:21.135Z,16.47
2022-08-27T05:18:49.020Z,16.62
2022-08-27T05:21:20.248Z,16.65
2022-08-27T05:23:47.696Z,16.69
2022-08-27T05:26:14.839Z,16.75
2022-08-27T05:28:41.651Z,16.75
2022-08-27T05:31:11.075Z,16.79
2022-08-27T05:33:39.093Z,16.85
2022-08-27T05:36:06.606Z,16.78
2022-08-27T05:38:34.490Z,16.75
2022-08-27T05:41:09.167Z,16.81
2022-08-27T05:43:37.053Z,16.76
2022-08-27T05:46:06.225Z,16.73
2022-08-27T05:48:34.003Z,16.78
2022-08-27T05:51:11.796Z,17.06
2022-08-27T05:53:39.236Z,17.38
2022-08-27T05:56:11.399Z,17.53
2022-08-27T05:58:56.897Z,18.00
2022-08-27T06:01:24.425Z,18.31
2022-08-27T06:03:52.870Z,18.37
2022-08-27T06:06:20.064Z,18.45
2022-08-27T06:08:46.952Z,18.45
2022-08-27T06:11:15.506Z,18.18
2022-08-27T06:13:43.600Z,18.21
2022-08-27T06:16:15.933Z,18.86
2022-08-27T06:18:44.670Z,18.77
2022-08-27T06:21:12.673Z,19.00
2022-08-27T06:23:39.582Z,19.65
2022-08-27T06:26:08.344Z,19.64
2022-08-27T06:28:35.722Z,19.47
2022-08-27T06:31:26.755Z,19.58
2022-08-27T06:33:58.416Z,19.18
2022-08-27T06:36:30.804Z,18.59
2022-08-27T06:38:58.105Z,18.51
2022-08-27T06:41:26.903Z,18.76
2022-08-27T06:43:54.758Z,18.59
2022-08-27T06:46:23.687Z,18.41
2022-08-27T06:48:55.003Z,18.94
2022-08-27T06:51:26.424Z,19.21
2022-08-27T06:53:55.344Z,19.21
2022-08-27T06:56:23.295Z,18.97
2022-08-27T06:58:58.543Z,18.74
2022-08-27T07:01:30.824Z,18.68
2022-08-27T07:03:59.892Z,18.77
2022-08-27T07:06:29.197Z,18.92
2022-08-27T07:08:57.176Z,18.75
2022-08-27T07:11:23.970Z,18.57
2022-08-27T07:13:50.744Z,19.07
2022-08-27T07:16:21.512Z,19.37
2022-08-27T07:18:52.187Z,19.34
2022-08-27T07:21:20.175Z,19.35
2022-08-27T07:23:47.958Z,19.46
2022-08-27T07:26:15.404Z,19.19
2022-08-27T07:28:43.200Z,19.39
2022-08-27T07:31:12.967Z,19.52
2022-08-27T07:33:42.053Z,20.06
2022-08-27T07:36:13.464Z,20.41
2022-08-27T07:38:40.283Z,20.06
2022-08-27T07:41:12.097Z,19.87
2022-08-27T07:43:57.850Z,19.87
2022-08-27T07:46:25.755Z,19.75
2022-08-27T07:48:53.363Z,19.68
2022-08-27T07:51:21.962Z,19.75
2022-08-27T07:53:48.666Z,20.63
2022-08-27T07:56:15.727Z,20.71
2022-08-27T07:58:43.360Z,20.72
2022-08-27T08:01:10.888Z,21.30
2022-08-27T08:03:37.684Z,21.15
2022-08-27T08:06:06.565Z,22.17
2022-08-27T08:08:35.108Z,22.11
2022-08-27T08:11:03.380Z,22.08
2022-08-27T08:13:31.102Z,22.26
2022-08-27T08:15:59.061Z,22.28
2022-08-27T08:18:26.882Z,22.32
2022-08-27T08:20:58.529Z,22.28
2022-08-27T08:23:27.518Z,22.34
2022-08-27T08:25:56.048Z,22.51
2022-08-27T08:28:22.875Z,22.31
2022-08-27T08:30:49.714Z,22.56
2022-08-27T08:33:17.346Z,23.01
2022-08-27T08:35:44.034Z,22.64
2022-08-27T08:38:10.924Z,22.69
2022-08-27T08:40:43.345Z,23.06
2022-08-27T08:43:33.532Z,22.97
2022-08-27T08:46:09.994Z,22.36
2022-08-27T08:48:37.652Z,22.25
2022-08-27T08:51:17.191Z,22.37
2022-08-27T08:53:51.398Z,22.79
2022-08-27T08:56:22.154Z,22.32
2022-08-27T08:58:57.725Z,22.35
2022-08-27T09:01:27.085Z,22.73
2022-08-27T09:04:07.523Z,22.92
2022-08-27T09:06:45.767Z,23.21
2022-08-27T09:09:40.244Z,23.61
2022-08-27T09:12:14.945Z,23.39
2022-08-27T09:15:05.105Z,23.17
2022-08-27T09:17:32.643Z,23.60
2022-08-27T09:19:59.433Z,23.83
2022-08-27T09:22:55.695Z,23.80
2022-08-27T09:25:37.723Z,24.07
2022-08-27T09:28:31.151Z,23.55
2022-08-27T09:31:03.194Z,23.76
2022-08-27T09:33:44.386Z,23.81
2022-08-27T09:36:22.956Z,23.39
2022-08-27T09:38:58.117Z,23.38
2022-08-27T09:41:29.526Z,24.04
2022-08-27T09:44:00.946Z,24.10
2022-08-27T09:46:28.275Z,24.32
2022-08-27T09:48:55.524Z,24.00
2022-08-27T09:51:25.799Z,24.12
2022-08-27T09:54:01.136Z,24.38
2022-08-27T09:56:30.775Z,24.92
2022-08-27T09:59:32.404Z,24.97
2022-08-27T10:02:14.920Z,24.79
2022-08-27T10:04:53.114Z,25.04
2022-08-27T10:07:23.565Z,25.18
2022-08-27T10:10:00.781Z,25.34
2022-08-27T10:12:29.560Z,24.95
2022-08-27T10:14:59.774Z,24.39
2022-08-27T10:17:38.802Z,24.50
2022-08-27T10:20:08.606Z,24.56
2022-08-27T10:23:01.761Z,24.73
2022-08-27T10:25:37.364Z,25.26
2022-08-27T10:28:18.551Z,25.10
2022-08-27T10:30:54.022Z,25.03
2022-08-27T10:33:50.954Z,25.04
2022-08-27T10:36:35.611Z,24.97
2022-08-27T10:39:30.414Z,25.20
2022-08-27T10:42:25.290Z,25.52
2022-08-27T10:45:31.376Z,24.82
2022-08-27T10:48:14.882Z,24.60
2022-08-27T10:50:54.672Z,25.10
2022-08-27T10:53:52.634Z,24.98
2022-08-27T10:56:33.461Z,24.98
2022-08-27T10:59:18.691Z,25.14
2022-08-27T11:02:13.399Z,25.38
2022-08-27T11:04:44.678Z,25.57
2022-08-27T11:07:22.376Z,25.65
2022-08-27T11:10:15.675Z,25.57
2022-08-27T11:12:50.582Z,25.67
2022-08-27T11:15:27.704Z,26.24
2022-08-27T11:18:34.369Z,26.84
2022-08-27T11:21:14.222Z,26.82
2022-08-27T11:23:45.675Z,26.22
2022-08-27T11:26:12.815Z,25.98
2022-08-27T11:28:42.332Z,26.47
2022-08-27T11:31:40.766Z,26.68
2022-08-27T11:34:26.803Z,26.24
2022-08-27T11:37:12.526Z,26.50
2022-08-27T11:40:06.559Z,26.29
2022-08-27T11:42:45.813Z,25.95
2022-08-27T11:45:24.743Z,26.37
2022-08-27T11:47:58.543Z,26.37
2022-08-27T11:50:26.774Z,26.29
2022-08-27T11:52:58.385Z,26.42
2022-08-27T11:55:29.898Z,26.54
2022-08-27T11:58:18.640Z,26.50
2022-08-27T12:00:47.111Z,26.97
2022-08-27T12:03:20.076Z,27.31
2022-08-27T12:05:54.827Z,27.40
2022-08-27T12:08:22.003Z,27.06
2022-08-27T12:11:16.762Z,26.85
2022-08-27T12:14:24.023Z,27.04
2022-08-27T12:17:05.805Z,27.01
2022-08-27T12:20:00.222Z,26.43
2022-08-27T12:23:17.692Z,27.16
2022-08-27T12:25:56.174Z,27.13
2022-08-27T12:28:26.684Z,27.29
2022-08-27T12:30:55.013Z,26.61
2022-08-27T12:33:31.222Z,26.73
2022-08-27T12:36:03.940Z,26.96
2022-08-27T12:38:35.041Z,26.75
2022-08-27T12:41:09.371Z,27.38
2022-08-27T12:43:43.623Z,27.33
2022-08-27T12:46:19.387Z,27.34
2022-08-27T12:48:49.774Z,27.35
2022-08-27T12:51:24.074Z,27.04
2022-08-27T12:54:08.955Z,27.06
2022-08-27T12:56:44.494Z,26.73
2022-08-27T12:59:29.571Z,27.09
2022-08-27T13:02:20.295Z,27.32
2022-08-27T13:04:48.163Z,27.73
2022-08-27T13:07:33.079Z,27.89
2022-08-27T13:10:13.226Z,27.39
2022-08-27T13:12:41.084Z,27.39
2022-08-27T13:15:10.744Z,27.55
2022-08-27T13:17:44.275Z,27.48
2022-08-27T13:20:22.988Z,27.73
2022-08-27T13:22:51.684Z,27.60
2022-08-27T13:25:23.443Z,27.37
2022-08-27T13:28:00.186Z,27.54
2022-08-27T13:30:35.494Z,27.05
2022-08-27T13:33:05.522Z,26.61
2022-08-27T13:35:32.642Z,26.56
2022-08-27T13:38:00.494Z,26.42
2022-08-27T13:40:34.601Z,26.33
2022-08-27T13:43:10.403Z,26.02
2022-08-27T13:45:40.521Z,25.99
2022-08-27T13:48:08.519Z,25.51
2022-08-27T13:50:36.173Z,25.54
2022-08-27T13:53:29.836Z,25.47
2022-08-27T13:55:57.960Z,25.57
2022-08-27T13:58:32.372Z,25.55
2022-08-27T14:01:29.198Z,25.66
2022-08-27T14:04:00.544Z,25.32
2022-08-27T14:06:42.501Z,25.00
2022-08-27T14:09:18.312Z,24.78
2022-08-27T14:11:46.555Z,24.82
2022-08-27T14:14:14.052Z,24.81
2022-08-27T14:16:41.446Z,24.81
2022-08-27T14:19:24.904Z,24.83
2022-08-27T14:21:52.495Z,24.43
2022-08-27T14:24:19.252Z,25.12
2022-08-27T14:26:53.095Z,25.39
2022-08-27T14:29:20.424Z,25.38
2022-08-27T14:31:47.670Z,25.44
2022-08-27T14:34:14.846Z,25.63
2022-08-27T14:36:42.520Z,25.33
2022-08-27T14:39:09.584Z,25.76
2022-08-27T14:41:37.144Z,25.74
2022-08-27T14:44:04.583Z,25.87
2022-08-27T14:46:36.162Z,25.90
2022-08-27T14:49:12.924Z,26.10
2022-08-27T14:51:41.071Z,25.22
2022-08-27T14:54:07.962Z,25.25
2022-08-27T14:56:34.802Z,25.26
2022-08-27T14:59:01.593Z,25.40
2022-08-27T15:01:29.572Z,25.30
2022-08-27T15:03:57.544Z,25.39
2022-08-27T15:06:25.272Z,25.16
2022-08-27T15:08:53.371Z,25.00
2022-08-27T15:11:25.546Z,25.10
2022-08-27T15:13:53.172Z,25.23
2022-08-27T15:16:31.884Z,25.15
2022-08-27T15:19:01.266Z,24.42
2022-08-27T15:21:30.554Z,24.32
2022-08-27T15:24:00.812Z,24.18
2022-08-27T15:26:28.332Z,24.18
2022-08-27T15:28:55.354Z,24.16
2022-08-27T15:31:22.377Z,23.92
2022-08-27T15:33:49.660Z,23.85
2022-08-27T15:36:16.568Z,23.88
2022-08-27T15:38:44.725Z,23.90
2022-08-27T15:41:11.992Z,23.72
2022-08-27T15:43:39.206Z,23.66
2022-08-27T15:46:06.278Z,23.63
2022-08-27T15:48:33.832Z,23.47
2022-08-27T15:51:05.922Z,23.49
2022-08-27T15:53:34.574Z,23.50
2022-08-27T15:56:04.025Z,23.44
2022-08-27T15:58:31.002Z,23.26
2022-08-27T16:01:14.269Z,23.21
2022-08-27T16:03:42.402Z,23.00
2022-08-27T16:06:09.545Z,22.82
2022-08-27T16:08:41.904Z,22.61
2022-08-27T16:11:09.300Z,22.43
2022-08-27T16:13:36.840Z,22.23
2022-08-27T16:16:04.084Z,22.16
2022-08-27T16:18:32.893Z,21.85
2022-08-27T16:21:00.793Z,21.55
2022-08-27T16:23:28.452Z,21.65
2022-08-27T16:25:56.183Z,21.40
2022-08-27T16:28:23.585Z,21.42
2022-08-27T16:30:51.619Z,21.65
2022-08-27T16:33:19.132Z,21.41
2022-08-27T16:35:46.661Z,21.52
2022-08-27T16:38:13.680Z,21.53
2022-08-27T16:40:44.092Z,21.09
2022-08-27T16:43:13.722Z,21.26
2022-08-27T16:45:41.438Z,21.30
2022-08-27T16:48:26.760Z,21.05
2022-08-27T16:50:53.594Z,21.03
2022-08-27T16:53:22.205Z,20.62
2022-08-27T16:55:50.280Z,20.30
2022-08-27T16:58:20.232Z,19.33
2022-08-27T17:00:50.571Z,18.28
2022-08-27T17:03:18.550Z,17.37
2022-08-27T17:05:45.450Z,17.42
2022-08-27T17:08:13.644Z,17.77
2022-08-27T17:10:46.500Z,18.02
2022-08-27T17:13:18.901Z,17.88
2022-08-27T17:15:52.129Z,17.89
2022-08-27T17:18:21.380Z,17.74
2022-08-27T17:20:49.350Z,17.70
2022-08-27T17:23:38.620Z,17.68
2022-08-27T17:26:07.708Z,17.76
2022-08-27T17:28:34.450Z,17.59
2022-08-27T17:31:02.428Z,17.47
2022-08-27T17:33:38.885Z,17.45
2022-08-27T17:36:07.142Z,17.68
2022-08-27T17:38:34.228Z,17.49
2022-08-27T17:41:04.061Z,17.68
2022-08-27T17:43:31.551Z,17.53
2022-08-27T17:45:59.313Z,17.65
2022-08-27T17:48:26.837Z,17.56
2022-08-27T17:50:53.931Z,17.61
2022-08-27T17:53:20.792Z,17.41
2022-08-27T17:55:47.550Z,17.27
2022-08-27T17:58:14.341Z,17.41
2022-08-27T18:00:45.064Z,17.57
2022-08-27T18:03:17.791Z,17.74
2022-08-27T18:05:46.390Z,17.43
2022-08-27T18:08:14.991Z,17.48
2022-08-27T18:10:42.751Z,17.49
2022-08-27T18:13:10.870Z,17.56
2022-08-27T18:15:41.910Z,17.47
2022-08-27T18:18:09.970Z,17.53
2022-08-27T18:20:37.200Z,17.43
2022-08-27T18:23:08.610Z,17.35
2022-08-27T18:25:37.210Z,17.33
2022-08-27T18:28:07.362Z,17.41
2022-08-27T18:30:34.544Z,17.57
2022-08-27T18:33:02.583Z,17.53
2022-08-27T18:35:31.507Z,17.46
2022-08-27T18:37:58.520Z,17.55
2022-08-27T18:40:30.986Z,17.57
2022-08-27T18:42:58.203Z,17.63
2022-08-27T18:45:28.583Z,17.49
2022-08-27T18:47:58.180Z,17.24
2022-08-27T18:50:25.710Z,17.03
2022-08-27T18:52:54.453Z,17.13
2022-08-27T18:55:25.761Z,17.11
2022-08-27T18:57:52.433Z,17.14
2022-08-27T19:00:20.620Z,17.28
2022-08-27T19:02:52.601Z,17.33
2022-08-27T19:05:29.088Z,17.44
2022-08-27T19:07:58.415Z,17.44
2022-08-27T19:10:26.027Z,17.36
2022-08-27T19:12:53.210Z,17.19
2022-08-27T19:15:20.469Z,17.00
2022-08-27T19:17:51.522Z,17.01
2022-08-27T19:20:18.746Z,17.01
2022-08-27T19:22:46.761Z,17.17
2022-08-27T19:25:13.885Z,17.28
2022-08-27T19:27:40.977Z,17.08
2022-08-27T19:30:08.559Z,17.19
2022-08-27T19:32:35.311Z,17.33
2022-08-27T19:35:01.998Z,17.27
2022-08-27T19:37:30.785Z,17.24
2022-08-27T19:39:57.627Z,17.28
2022-08-27T19:42:24.428Z,17.19
2022-08-27T19:44:51.221Z,16.95
2022-08-27T19:47:21.606Z,17.00
2022-08-27T19:49:49.894Z,17.09
2022-08-27T19:52:16.694Z,17.07
2022-08-27T19:55:03.340Z,16.86
2022-08-27T19:57:30.199Z,16.96
2022-08-27T19:59:56.981Z,16.91
2022-08-27T20:02:23.805Z,17.04
2022-08-27T20:05:14.333Z,17.04
2022-08-27T20:07:37.360Z,17.01
2022-08-27T20:10:08.186Z,17.08
2022-08-27T20:12:36.479Z,16.96
2022-08-27T20:15:05.440Z,17.06
2022-08-27T20:17:32.861Z,17.12
2022-08-27T20:20:00.630Z,17.08
2022-08-27T20:22:28.360Z,17.05
2022-08-27T20:24:55.159Z,16.93
2022-08-27T20:27:22.185Z,17.11
2022-08-27T20:29:48.944Z,17.09
2022-08-27T20:32:15.650Z,16.96
2022-08-27T20:34:42.500Z,16.96
2022-08-27T20:37:09.522Z,17.04
2022-08-27T20:39:36.215Z,17.04
2022-08-27T20:42:03.122Z,16.89
2022-08-27T20:44:30.151Z,16.94
2022-08-27T20:46:59.467Z,16.98
2022-08-27T20:49:28.006Z,16.99
2022-08-27T20:52:03.336Z,16.91
2022-08-27T20:54:31.760Z,16.96
2022-08-27T20:56:58.856Z,16.80
2022-08-27T20:59:44.419Z,16.92
2022-08-27T21:02:12.675Z,16.99
2022-08-27T21:04:45.962Z,16.96
2022-08-27T21:07:13.636Z,16.93
2022-08-27T21:09:56.538Z,17.09
2022-08-27T21:12:26.110Z,16.86
2022-08-27T21:14:55.779Z,16.98
2022-08-27T21:17:24.601Z,16.98
2022-08-27T21:19:51.410Z,16.94
2022-08-27T21:22:18.710Z,16.83
2022-08-27T21:24:47.504Z,16.77
2022-08-27T21:27:15.702Z,16.96
2022-08-27T21:29:44.769Z,16.82
2022-08-27T21:32:12.230Z,16.71
2022-08-27T21:34:39.193Z,16.74
2022-08-27T21:37:05.980Z,16.75
2022-08-27T21:39:34.339Z,16.76
2022-08-27T21:42:01.810Z,16.81
2022-08-27T21:44:29.336Z,16.85
2022-08-27T21:46:56.433Z,16.97
2022-08-27T21:49:23.129Z,17.04
2022-08-27T21:51:49.820Z,16.96
2022-08-27T21:54:16.526Z,16.92
2022-08-27T21:56:43.695Z,16.93
2022-08-27T21:59:10.515Z,16.90
2022-08-27T22:01:37.634Z,16.77
2022-08-27T22:04:04.283Z,16.75
2022-08-27T22:06:30.942Z,16.79
2022-08-27T22:08:57.545Z,16.75
2022-08-27T22:11:25.693Z,16.79
2022-08-27T22:13:53.106Z,16.76
2022-08-27T22:16:19.867Z,16.75
2022-08-27T22:18:46.534Z,16.85
2022-08-27T22:21:13.476Z,16.76
2022-08-27T22:23:44.753Z,16.77
2022-08-27T22:26:12.149Z,16.77
2022-08-27T22:28:38.875Z,16.69
2022-08-27T22:31:07.522Z,16.61
2022-08-27T22:33:34.377Z,16.54
2022-08-27T22:36:01.088Z,16.50
2022-08-27T22:38:27.716Z,16.63
2022-08-27T22:40:54.347Z,16.53
2022-08-27T22:43:21.257Z,16.46
2022-08-27T22:45:47.926Z,16.45
2022-08-27T22:48:14.525Z,16.39
2022-08-27T22:50:41.372Z,16.38
2022-08-27T22:53:08.352Z,16.37
2022-08-27T22:55:35.589Z,16.41
2022-08-27T22:58:02.298Z,16.41
2022-08-27T23:00:32.275Z,16.58
2022-08-27T23:02:59.311Z,16.63
2022-08-27T23:05:26.925Z,16.64
2022-08-27T23:07:54.882Z,16.73
2022-08-27T23:10:24.230Z,16.72
2022-08-27T23:12:53.727Z,16.69
2022-08-27T23:15:23.709Z,16.66
2022-08-27T23:17:50.727Z,16.74
2022-08-27T23:20:21.476Z,16.73
2022-08-27T23:22:49.369Z,16.73
2022-08-27T23:25:36.300Z,16.62
2022-08-27T23:28:06.526Z,16.57
2022-08-27T23:30:34.457Z,16.44
2022-08-27T23:33:01.630Z,16.52
2022-08-27T23:35:29.368Z,16.45
2022-08-27T23:37:56.379Z,16.54
2022-08-27T23:40:23.673Z,16.63
2022-08-27T23:42:50.739Z,16.55
2022-08-27T23:45:21.501Z,16.51
2022-08-27T23:47:48.693Z,16.40
2022-08-27T23:50:16.149Z,16.51
2022-08-27T23:52:42.892Z,16.56
2022-08-27T23:55:11.120Z,16.60
2022-08-27T23:57:38.639Z,16.64
